createdAt,value
2022-12-19T00:00:34.957Z,84.90
2022-12-19T00:03:22.844Z,79.70
2022-12-19T00:05:50.631Z,83.70
2022-12-19T00:08:18.499Z,87.20
2022-12-19T00:10:56.797Z,86.00
2022-12-19T00:13:25.605Z,90.90
2022-12-19T00:15:53.754Z,77.00
2022-12-19T00:18:22.193Z,87.40
2022-12-19T00:20:56.747Z,86.10
2022-12-19T00:23:25.447Z,92.70
2022-12-19T00:25:53.315Z,101.40
2022-12-19T00:28:22.207Z,95.50
2022-12-19T00:30:49.964Z,99.50
2022-12-19T00:33:19.776Z,76.60
2022-12-19T00:35:47.640Z,84.80
2022-12-19T00:38:15.302Z,70.80
2022-12-19T00:40:43.272Z,88.30
2022-12-19T00:43:11.039Z,97.20
2022-12-19T00:45:39.157Z,91.00
2022-12-19T00:48:06.866Z,96.90
2022-12-19T00:50:36.151Z,92.70
2022-12-19T00:53:03.923Z,84.70
2022-12-19T00:55:31.898Z,89.50
2022-12-19T00:58:02.334Z,90.30
2022-12-19T01:00:30.906Z,93.60
2022-12-19T01:02:58.867Z,84.80
2022-12-19T01:05:27.146Z,81.90
2022-12-19T01:07:54.959Z,84.00
2022-12-19T01:10:22.595Z,87.80
2022-12-19T01:12:50.231Z,88.40
2022-12-19T01:15:20.578Z,90.70
2022-12-19T01:17:48.737Z,89.50
2022-12-19T01:20:22.227Z,87.70
2022-12-19T01:22:58.579Z,87.90
2022-12-19T01:25:28.346Z,68.20
2022-12-19T01:27:56.992Z,89.90
2022-12-19T01:30:25.258Z,93.80
2022-12-19T01:32:53.947Z,95.40
2022-12-19T01:35:22.332Z,69.90
2022-12-19T01:37:53.975Z,92.80
2022-12-19T01:40:32.696Z,72.00
2022-12-19T01:43:01.687Z,54.10
2022-12-19T01:45:36.617Z,72.70
2022-12-19T01:51:01.283Z,78.50
2022-12-19T01:53:34.072Z,85.30
2022-12-19T01:56:09.034Z,69.50
2022-12-19T01:58:38.401Z,45.60
2022-12-19T02:01:06.201Z,87.50
2022-12-19T02:03:35.808Z,76.40
2022-12-19T02:06:05.643Z,91.10
2022-12-19T02:08:34.437Z,80.30
2022-12-19T02:11:02.757Z,84.90
2022-12-19T02:13:30.521Z,78.50
2022-12-19T02:16:17.104Z,72.40
2022-12-19T02:18:51.982Z,71.60
2022-12-19T02:21:30.297Z,80.50
2022-12-19T02:24:01.001Z,70.90
2022-12-19T02:26:47.412Z,77.90
2022-12-19T02:29:21.260Z,72.90
2022-12-19T02:31:52.075Z,73.60
2022-12-19T02:34:28.004Z,77.40
2022-12-19T02:37:00.478Z,83.40
2022-12-19T02:39:34.483Z,85.00
2022-12-19T02:42:04.054Z,60.50
2022-12-19T02:44:33.394Z,67.90
2022-12-19T02:47:03.001Z,69.60
2022-12-19T02:49:32.713Z,74.50
2022-12-19T02:52:33.140Z,64.90
2022-12-19T02:55:03.373Z,65.20
2022-12-19T02:57:31.141Z,73.30
2022-12-19T02:59:58.826Z,65.90
2022-12-19T03:02:26.575Z,76.90
2022-12-19T03:04:54.450Z,64.30
2022-12-19T03:07:44.406Z,68.50
2022-12-19T03:10:11.981Z,37.10
2022-12-19T03:12:44.183Z,77.60
2022-12-19T03:15:15.935Z,64.50
2022-12-19T03:17:43.786Z,80.50
2022-12-19T03:20:19.934Z,77.20
2022-12-19T03:22:47.682Z,56.30
2022-12-19T03:25:16.267Z,76.50
2022-12-19T03:27:46.260Z,65.60
2022-12-19T03:30:14.203Z,65.20
2022-12-19T03:32:43.838Z,60.90
2022-12-19T03:35:18.274Z,69.30
2022-12-19T03:37:47.609Z,58.40
2022-12-19T03:40:20.197Z,70.80
2022-12-19T03:43:07.876Z,65.40
2022-12-19T03:45:43.465Z,66.90
2022-12-19T03:48:21.389Z,65.00
2022-12-19T03:50:54.217Z,69.50
2022-12-19T03:53:29.331Z,66.50
2022-12-19T03:56:01.788Z,68.10
2022-12-19T03:58:34.022Z,66.50
2022-12-19T04:01:02.585Z,64.40
2022-12-19T04:03:31.774Z,66.60
2022-12-19T04:06:01.281Z,61.70
2022-12-19T04:08:30.172Z,68.90
2022-12-19T04:11:01.442Z,73.20
2022-12-19T04:13:33.685Z,60.30
2022-12-19T04:16:20.251Z,59.20
2022-12-19T04:18:51.334Z,69.60
2022-12-19T04:21:20.769Z,54.40
2022-12-19T04:23:52.862Z,59.40
2022-12-19T04:26:21.212Z,64.60
2022-12-19T04:28:50.755Z,68.70
2022-12-19T04:31:20.173Z,63.90
2022-12-19T04:33:47.805Z,56.20
2022-12-19T04:36:15.663Z,59.30
2022-12-19T04:38:43.445Z,62.70
2022-12-19T04:41:11.047Z,60.90
2022-12-19T04:43:38.688Z,62.90
2022-12-19T04:46:07.102Z,61.30
2022-12-19T04:48:35.839Z,52.80
2022-12-19T04:51:03.895Z,59.00
2022-12-19T04:53:31.856Z,57.90
2022-12-19T04:56:03.234Z,67.60
2022-12-19T04:58:31.110Z,52.00
2022-12-19T05:01:03.592Z,56.40
2022-12-19T05:03:32.079Z,61.30
2022-12-19T05:06:06.994Z,65.10
2022-12-19T05:08:35.084Z,58.50
2022-12-19T05:11:03.888Z,54.80
2022-12-19T05:13:32.924Z,56.20
2022-12-19T05:16:02.481Z,52.90
2022-12-19T05:18:30.673Z,57.20
2022-12-19T05:20:58.986Z,57.40
2022-12-19T05:23:28.093Z,56.40
2022-12-19T05:25:58.828Z,51.20
2022-12-19T05:28:26.471Z,60.90
2022-12-19T05:31:04.418Z,65.10
2022-12-19T05:33:32.273Z,62.40
2022-12-19T05:36:00.002Z,55.20
2022-12-19T05:38:28.992Z,54.90
2022-12-19T05:40:56.958Z,53.80
2022-12-19T05:43:24.725Z,54.80
2022-12-19T05:45:52.757Z,56.30
2022-12-19T05:48:20.747Z,51.30
2022-12-19T05:50:51.699Z,53.30
2022-12-19T05:53:23.343Z,59.80
2022-12-19T05:56:14.193Z,52.50
2022-12-19T05:58:42.235Z,55.40
2022-12-19T06:01:11.733Z,54.20
2022-12-19T06:03:39.901Z,57.60
2022-12-19T06:06:12.373Z,51.00
2022-12-19T06:08:40.546Z,47.80
2022-12-19T06:11:08.923Z,48.70
2022-12-19T06:13:37.196Z,55.90
2022-12-19T06:16:10.118Z,56.00
2022-12-19T06:18:42.865Z,50.70
2022-12-19T06:21:14.624Z,51.70
2022-12-19T06:23:42.700Z,55.20
2022-12-19T06:26:17.158Z,54.00
2022-12-19T06:28:47.734Z,58.10
2022-12-19T06:31:16.125Z,50.20
2022-12-19T06:33:44.701Z,56.50
2022-12-19T06:36:15.037Z,53.40
2022-12-19T06:38:42.986Z,52.20
2022-12-19T06:41:30.003Z,43.70
2022-12-19T06:43:58.581Z,52.60
2022-12-19T06:46:26.342Z,49.80
2022-12-19T06:48:54.215Z,44.10
2022-12-19T06:51:22.163Z,55.60
2022-12-19T06:53:51.514Z,53.10
2022-12-19T06:56:20.467Z,57.70
2022-12-19T06:58:48.601Z,46.70
2022-12-19T07:01:20.474Z,42.70
2022-12-19T07:03:49.295Z,54.10
2022-12-19T07:06:17.166Z,58.30
2022-12-19T07:08:45.028Z,51.50
2022-12-19T07:11:12.779Z,50.80
2022-12-19T07:13:40.544Z,50.70
2022-12-19T07:16:08.875Z,47.10
2022-12-19T07:18:38.323Z,46.50
2022-12-19T07:21:06.725Z,49.30
2022-12-19T07:23:35.551Z,49.70
2022-12-19T07:26:04.094Z,46.30
2022-12-19T07:28:33.756Z,40.60
2022-12-19T07:31:01.546Z,53.80
2022-12-19T07:33:29.288Z,45.80
2022-12-19T07:35:57.071Z,47.80
2022-12-19T07:38:24.932Z,48.70
2022-12-19T07:40:52.692Z,49.90
2022-12-19T07:43:20.726Z,47.10
2022-12-19T07:45:54.128Z,52.30
2022-12-19T07:48:22.229Z,54.30
2022-12-19T07:50:49.871Z,47.70
2022-12-19T07:53:17.637Z,45.60
2022-12-19T07:55:45.282Z,52.10
2022-12-19T07:58:14.375Z,47.40
2022-12-19T08:00:42.319Z,49.70
2022-12-19T08:03:10.350Z,45.20
2022-12-19T08:05:38.414Z,41.70
2022-12-19T08:08:06.165Z,48.40
2022-12-19T08:10:34.559Z,49.80
2022-12-19T08:13:02.351Z,45.60
2022-12-19T08:15:30.592Z,38.30
2022-12-19T08:17:58.307Z,41.60
2022-12-19T08:20:26.007Z,45.70
2022-12-19T08:22:53.781Z,43.20
2022-12-19T08:25:21.868Z,43.60
2022-12-19T08:27:49.922Z,38.20
2022-12-19T08:30:17.735Z,38.50
2022-12-19T08:32:46.881Z,34.50
2022-12-19T08:35:15.035Z,43.20
2022-12-19T08:37:43.055Z,36.70
2022-12-19T08:40:11.502Z,38.30
2022-12-19T08:42:39.192Z,35.80
2022-12-19T08:45:07.904Z,40.30
2022-12-19T08:47:36.023Z,38.70
2022-12-19T08:50:04.089Z,34.40
2022-12-19T08:52:31.899Z,41.00
2022-12-19T08:55:00.809Z,69.90
2022-12-19T08:59:54.976Z,39.60
2022-12-19T09:02:24.611Z,29.40
2022-12-19T09:06:00.452Z,33.00
2022-12-19T09:07:40.961Z,31.80
2022-12-19T09:10:09.059Z,29.80
2022-12-19T09:12:36.799Z,30.10
2022-12-19T09:15:05.560Z,27.60
2022-12-19T09:17:33.396Z,29.40
2022-12-19T09:20:01.079Z,34.10
2022-12-19T09:22:29.443Z,25.90
2022-12-19T09:24:57.653Z,27.00
2022-12-19T09:27:25.586Z,26.90
2022-12-19T09:29:53.286Z,25.40
2022-12-19T09:32:21.155Z,27.30
2022-12-19T09:34:49.016Z,23.90
2022-12-19T09:37:17.854Z,27.00
2022-12-19T09:39:46.928Z,24.40
2022-12-19T09:42:40.887Z,29.60
2022-12-19T09:45:25.641Z,31.60
2022-12-19T09:48:01.307Z,26.90
2022-12-19T09:50:33.272Z,26.40
2022-12-19T09:53:04.605Z,26.30
2022-12-19T09:55:34.608Z,25.50
2022-12-19T09:58:06.109Z,25.50
2022-12-19T10:00:36.074Z,24.40
2022-12-19T10:03:07.301Z,28.50
2022-12-19T10:06:40.705Z,25.90
2022-12-19T10:09:21.829Z,27.50
2022-12-19T10:12:39.689Z,23.90
2022-12-19T10:15:02.183Z,22.10
2022-12-19T10:17:36.708Z,24.50
2022-12-19T10:20:04.971Z,26.40
2022-12-19T10:22:32.786Z,25.00
2022-12-19T10:25:13.098Z,24.80
2022-12-19T10:27:59.599Z,24.20
2022-12-19T10:30:31.986Z,25.50
2022-12-19T10:33:05.783Z,26.40
2022-12-19T10:35:37.626Z,26.60
2022-12-19T10:38:14.946Z,26.60
2022-12-19T10:40:54.867Z,27.20
2022-12-19T10:43:33.573Z,28.10
2022-12-19T10:46:10.008Z,25.50
2022-12-19T10:48:37.849Z,23.90
2022-12-19T10:51:10.500Z,23.80
2022-12-19T10:53:38.587Z,26.00
2022-12-19T10:56:13.404Z,27.90
2022-12-19T10:58:43.531Z,28.60
2022-12-19T11:01:23.835Z,29.90
2022-12-19T11:03:53.472Z,31.50
2022-12-19T11:06:39.912Z,27.90
2022-12-19T11:09:18.318Z,28.80
2022-12-19T11:15:55.991Z,27.60
2022-12-19T11:20:56.166Z,32.60
2022-12-19T11:23:14.310Z,29.00
2022-12-19T11:28:12.682Z,27.30
2022-12-19T11:29:41.631Z,28.40
2022-12-19T11:30:43.170Z,27.10
2022-12-19T11:30:47.447Z,28.60
2022-12-19T11:34:32.471Z,24.50
2022-12-19T11:37:00.958Z,25.40
2022-12-19T11:39:28.719Z,28.50
2022-12-19T11:42:02.090Z,24.10
2022-12-19T11:44:33.867Z,25.70
2022-12-19T11:47:20.439Z,31.20
2022-12-19T11:49:51.830Z,27.40
2022-12-19T11:53:04.144Z,26.00
2022-12-19T11:55:36.187Z,24.60
2022-12-19T11:58:04.067Z,25.80
2022-12-19T12:00:32.779Z,30.00
2022-12-19T12:03:27.093Z,41.30
2022-12-19T12:05:56.656Z,34.20
2022-12-19T12:10:15.317Z,36.50
2022-12-19T12:14:24.224Z,30.30
2022-12-19T12:14:49.844Z,28.90
2022-12-19T12:31:00.177Z,33.50
2022-12-19T12:31:07.207Z,26.90
2022-12-19T12:31:21.758Z,26.70
2022-12-19T12:31:46.812Z,25.10
2022-12-19T12:31:56.215Z,23.20
2022-12-19T12:35:34.266Z,28.80
2022-12-19T12:41:06.434Z,23.40
2022-12-19T12:43:46.224Z,22.10
2022-12-19T12:46:23.110Z,25.20
2022-12-19T12:48:57.061Z,25.30
2022-12-19T12:51:26.011Z,24.30
2022-12-19T12:54:07.872Z,23.10
2022-12-19T12:56:36.361Z,25.30
2022-12-19T12:59:06.638Z,28.90
2022-12-19T13:01:40.717Z,20.80
2022-12-19T13:04:11.617Z,23.50
2022-12-19T13:07:00.920Z,23.50
2022-12-19T13:09:34.613Z,22.00
2022-12-19T13:12:43.282Z,24.70
2022-12-19T13:15:31.433Z,19.70
2022-12-19T13:18:11.595Z,24.70
2022-12-19T13:20:41.954Z,22.90
2022-12-19T13:23:35.940Z,26.70
2022-12-19T13:26:04.205Z,22.30
2022-12-19T13:28:31.864Z,19.80
2022-12-19T13:31:20.572Z,22.30
2022-12-19T13:33:52.691Z,19.40
2022-12-19T13:39:52.070Z,21.40
2022-12-19T13:40:10.981Z,20.10
2022-12-19T13:43:09.804Z,22.80
2022-12-19T13:45:41.039Z,22.90
2022-12-19T13:48:14.626Z,23.60
2022-12-19T13:50:43.717Z,24.70
2022-12-19T13:53:16.366Z,28.00
2022-12-19T13:55:44.265Z,24.50
2022-12-19T13:58:29.455Z,44.20
2022-12-19T14:01:21.028Z,22.10
2022-12-19T14:03:50.688Z,20.60
2022-12-19T14:06:24.350Z,23.70
2022-12-19T14:09:37.472Z,25.70
2022-12-19T14:13:40.675Z,21.30
2022-12-19T14:15:02.178Z,23.00
2022-12-19T14:22:07.946Z,22.80
2022-12-19T14:23:42.691Z,23.50
2022-12-19T14:28:20.370Z,24.10
2022-12-19T14:29:05.014Z,21.60
2022-12-19T14:31:34.155Z,21.90
2022-12-19T14:36:52.782Z,20.80
2022-12-19T14:39:28.867Z,22.10
2022-12-19T14:42:49.358Z,20.90
2022-12-19T14:54:11.921Z,21.20
2022-12-19T14:54:14.414Z,19.80
2022-12-19T14:54:24.629Z,23.90
2022-12-19T14:57:16.432Z,22.30
2022-12-19T15:01:10.242Z,23.70
2022-12-19T15:03:15.648Z,24.60
2022-12-19T15:05:44.256Z,27.10
2022-12-19T15:08:12.430Z,28.80
2022-12-19T15:11:09.295Z,36.80
2022-12-19T15:14:55.376Z,34.20
2022-12-19T15:16:28.526Z,26.20
2022-12-19T15:18:58.697Z,25.60
2022-12-19T15:21:27.745Z,30.20
2022-12-19T15:23:55.492Z,23.20
2022-12-19T15:26:31.485Z,29.60
2022-12-19T15:28:59.555Z,30.20
2022-12-19T15:31:36.834Z,30.70
2022-12-19T15:37:14.867Z,28.70
2022-12-19T15:39:44.714Z,28.10
2022-12-19T15:42:21.353Z,32.90
2022-12-19T15:44:49.856Z,21.40
2022-12-19T15:47:26.101Z,30.00
2022-12-19T15:49:56.224Z,29.90
2022-12-19T15:52:26.676Z,28.40
2022-12-19T15:54:58.502Z,30.40
2022-12-19T15:57:35.263Z,28.60
2022-12-19T16:00:08.000Z,28.90
2022-12-19T16:05:31.267Z,31.10
2022-12-19T16:08:01.350Z,27.50
2022-12-19T16:10:29.999Z,30.80
2022-12-19T16:12:58.609Z,27.90
2022-12-19T16:15:31.196Z,26.10
2022-12-19T16:18:00.209Z,27.20
2022-12-19T16:20:29.377Z,28.60
2022-12-19T16:22:57.138Z,28.20
2022-12-19T16:25:30.102Z,28.00
2022-12-19T16:27:59.019Z,27.10
2022-12-19T16:30:30.874Z,27.10
2022-12-19T16:32:59.104Z,25.30
2022-12-19T16:36:02.469Z,28.80
2022-12-19T16:38:16.780Z,28.80
2022-12-19T16:40:45.373Z,27.30
2022-12-19T16:43:13.357Z,30.60
2022-12-19T16:45:44.581Z,28.60
2022-12-19T16:48:20.133Z,28.00
2022-12-19T16:50:48.849Z,28.70
2022-12-19T16:53:17.498Z,26.50
2022-12-19T16:55:46.802Z,37.90
2022-12-19T16:58:19.816Z,34.80
2022-12-19T17:00:49.638Z,25.80
2022-12-19T17:03:38.613Z,29.60
2022-12-19T17:06:15.430Z,27.50
2022-12-19T17:08:44.804Z,29.60
2022-12-19T17:11:14.855Z,27.40
2022-12-19T17:13:44.137Z,27.50
2022-12-19T17:16:12.827Z,27.30
2022-12-19T17:18:43.052Z,27.00
2022-12-19T17:21:15.857Z,27.10
2022-12-19T17:23:44.229Z,28.10
2022-12-19T17:26:17.705Z,30.40
2022-12-19T17:28:49.780Z,29.40
2022-12-19T17:31:26.621Z,28.20
2022-12-19T17:33:55.577Z,24.30
2022-12-19T17:36:29.862Z,27.70
2022-12-19T17:39:01.517Z,27.40
2022-12-19T17:41:30.820Z,28.90
2022-12-19T17:43:58.987Z,26.60
2022-12-19T17:46:30.990Z,28.40
2022-12-19T17:48:59.955Z,28.60
2022-12-19T17:51:28.533Z,26.90
2022-12-19T17:53:57.700Z,26.70
2022-12-19T17:56:25.894Z,26.40
2022-12-19T17:58:56.111Z,23.60
2022-12-19T18:01:26.235Z,25.40
2022-12-19T18:03:56.839Z,27.30
2022-12-19T18:06:28.296Z,29.50
2022-12-19T18:08:58.291Z,27.00
2022-12-19T18:11:27.462Z,28.20
2022-12-19T18:13:55.922Z,25.10
2022-12-19T18:16:28.400Z,27.70
2022-12-19T18:18:57.186Z,26.90
2022-12-19T18:21:25.555Z,29.80
2022-12-19T18:23:54.538Z,29.80
2022-12-19T18:26:22.384Z,29.20
2022-12-19T18:28:50.371Z,26.40
2022-12-19T18:31:24.327Z,30.30
2022-12-19T18:33:54.725Z,27.20
2022-12-19T18:36:24.198Z,26.80
2022-12-19T18:38:52.481Z,31.10
2022-12-19T18:41:20.895Z,30.40
2022-12-19T18:43:49.228Z,26.50
2022-12-19T18:46:19.499Z,30.80
2022-12-19T18:48:47.440Z,30.80
2022-12-19T18:51:19.283Z,29.90
2022-12-19T18:53:47.867Z,28.30
2022-12-19T18:56:15.857Z,29.30
2022-12-19T18:58:43.689Z,28.70
2022-12-19T19:01:14.175Z,31.20
2022-12-19T19:03:44.949Z,28.70
2022-12-19T19:06:17.428Z,27.90
2022-12-19T19:08:48.328Z,30.20
2022-12-19T19:11:17.758Z,29.90
2022-12-19T19:13:45.691Z,33.20
2022-12-19T19:16:23.678Z,32.00
2022-12-19T19:18:53.028Z,25.40
2022-12-19T19:21:22.947Z,27.90
2022-12-19T19:23:56.343Z,31.90
2022-12-19T19:26:24.415Z,31.00
2022-12-19T19:28:52.929Z,33.00
2022-12-19T19:31:23.751Z,33.80
2022-12-19T19:34:01.010Z,30.90
2022-12-19T19:36:31.962Z,30.70
2022-12-19T19:39:00.231Z,31.30
2022-12-19T19:41:30.344Z,31.60
2022-12-19T19:44:00.306Z,30.30
2022-12-19T19:46:28.466Z,34.80
2022-12-19T19:48:57.010Z,30.30
2022-12-19T19:51:25.411Z,32.70
2022-12-19T19:53:53.864Z,30.10
2022-12-19T19:56:22.068Z,33.40
2022-12-19T19:58:49.937Z,31.90
2022-12-19T20:01:18.656Z,28.90
2022-12-19T20:03:50.031Z,30.10
2022-12-19T20:06:20.123Z,29.60
2022-12-19T20:08:48.043Z,27.50
2022-12-19T20:11:18.782Z,31.50
2022-12-19T20:13:47.675Z,31.30
2022-12-19T20:16:18.270Z,30.80
2022-12-19T20:18:47.664Z,32.40
2022-12-19T20:21:16.063Z,32.60
2022-12-19T20:23:45.897Z,32.00
2022-12-19T20:26:16.831Z,31.70
2022-12-19T20:28:49.454Z,32.50
2022-12-19T20:31:19.095Z,33.30
2022-12-19T20:33:48.930Z,30.00
2022-12-19T20:36:18.513Z,31.70
2022-12-19T20:38:47.286Z,33.80
2022-12-19T20:41:17.431Z,35.90
2022-12-19T20:43:46.106Z,35.10
2022-12-19T20:46:17.063Z,32.90
2022-12-19T20:48:47.050Z,31.20
2022-12-19T20:51:17.752Z,36.10
2022-12-19T20:53:46.479Z,34.30
2022-12-19T20:56:16.047Z,30.60
2022-12-19T20:58:44.853Z,32.10
2022-12-19T21:01:19.400Z,33.00
2022-12-19T21:03:48.992Z,29.80
2022-12-19T21:06:18.493Z,32.50
2022-12-19T21:08:47.118Z,32.90
2022-12-19T21:11:15.776Z,33.30
2022-12-19T21:13:44.340Z,35.00
2022-12-19T21:16:15.226Z,29.90
2022-12-19T21:18:45.013Z,32.50
2022-12-19T21:21:18.380Z,32.30
2022-12-19T21:23:48.602Z,30.50
2022-12-19T21:26:17.239Z,31.00
2022-12-19T21:28:46.301Z,30.40
2022-12-19T21:31:16.537Z,28.70
2022-12-19T21:33:45.411Z,32.10
2022-12-19T21:36:16.700Z,34.60
2022-12-19T21:38:47.076Z,34.20
2022-12-19T21:41:19.525Z,31.60
2022-12-19T21:43:54.563Z,28.40
2022-12-19T21:46:25.329Z,33.10
2022-12-19T21:48:56.151Z,32.60
2022-12-19T21:51:27.434Z,35.60
2022-12-19T21:54:03.564Z,32.50
2022-12-19T21:56:31.631Z,27.70
2022-12-19T21:59:02.077Z,31.80
2022-12-19T22:01:30.837Z,31.40
2022-12-19T22:04:01.638Z,33.00
2022-12-19T22:06:32.147Z,33.10
2022-12-19T22:09:00.548Z,29.50
2022-12-19T22:11:31.214Z,30.20
2022-12-19T22:14:05.237Z,31.70
2022-12-19T22:16:34.259Z,37.70
2022-12-19T22:19:03.185Z,27.80
2022-12-19T22:21:31.765Z,27.60
2022-12-19T22:24:00.451Z,28.60
2022-12-19T22:26:29.472Z,28.70
2022-12-19T22:28:58.539Z,30.90
2022-12-19T22:31:28.152Z,27.70
2022-12-19T22:34:00.912Z,30.90
2022-12-19T22:36:29.818Z,27.50
2022-12-19T22:38:58.614Z,28.40
2022-12-19T22:41:26.773Z,28.30
2022-12-19T22:43:55.537Z,31.50
2022-12-19T22:46:27.664Z,29.40
2022-12-19T22:48:56.930Z,31.00
2022-12-19T22:51:25.295Z,30.50
2022-12-19T22:53:52.985Z,28.40
2022-12-19T22:56:22.362Z,28.40
2022-12-19T22:58:51.018Z,29.80
2022-12-19T23:01:20.736Z,29.80
2022-12-19T23:03:50.997Z,28.00
2022-12-19T23:06:20.206Z,25.70
2022-12-19T23:08:48.247Z,32.00
2022-12-19T23:11:17.657Z,32.70
2022-12-19T23:13:46.042Z,29.00
2022-12-19T23:16:14.514Z,32.60
2022-12-19T23:18:42.467Z,31.50
2022-12-19T23:21:12.107Z,29.50
2022-12-19T23:23:42.493Z,27.80
2022-12-19T23:26:15.954Z,29.90
2022-12-19T23:28:45.105Z,27.00
2022-12-19T23:31:13.536Z,27.10
2022-12-19T23:33:41.437Z,31.70
2022-12-19T23:36:11.120Z,29.10
2022-12-19T23:38:39.229Z,27.70
2022-12-19T23:41:08.627Z,28.90
2022-12-19T23:43:37.389Z,32.00
2022-12-19T23:46:10.830Z,28.70
2022-12-19T23:48:39.089Z,31.00
2022-12-19T23:51:07.827Z,31.20
2022-12-19T23:53:35.648Z,28.00
2022-12-19T23:56:06.674Z,28.50
2022-12-19T23:58:34.537Z,27.90
